Time;durP1;ratioP1;P1;durP2;ratioP2;P2;SDS_P1;SDS_P2;PMS_P1;PMS_P2;Temp;Humidity;BMP_temperature;BMP_pressure;BME280_temperature;BME280_humidity;BME280_pressure;Samples;Min_cycle;Max_cycle;Signal;HPM_P1;HPM_P2
2023/04/29 00:01:28;;;;;;;39.55;36.38;;;6.10;99.90;;;;;;5087200;29;20031;-75
2023/04/29 00:03:59;;;;;;;40.97;37.75;;;6.20;99.90;;;;;;5087515;29;20024;-75
2023/04/29 00:06:30;;;;;;;35.05;32.47;;;6.30;99.90;;;;;;5087284;29;20385;-75
2023/04/29 00:09:01;;;;;;;33.72;31.10;;;6.30;99.90;;;;;;5087476;29;20493;-75
2023/04/29 00:11:32;;;;;;;35.20;32.58;;;6.30;99.90;;;;;;5087539;29;20417;-75
2023/04/29 00:14:02;;;;;;;40.28;37.08;;;6.00;99.90;;;;;;5087608;29;20066;-75
2023/04/29 00:16:33;;;;;;;36.38;32.85;;;6.00;99.90;;;;;;5087372;29;20080;-75
2023/04/29 00:19:04;;;;;;;33.33;30.85;;;6.00;99.90;;;;;;5087402;29;20469;-75
2023/04/29 00:21:35;;;;;;;34.53;32.13;;;6.10;99.90;;;;;;5087503;29;20040;-73
2023/04/29 00:24:06;;;;;;;43.30;39.42;;;6.30;99.90;;;;;;5087438;29;20417;-75
2023/04/29 00:26:37;;;;;;;75.15;65.75;;;6.00;99.90;;;;;;5087323;29;20032;-75
2023/04/29 00:29:08;;;;;;;67.75;58.42;;;6.00;99.90;;;;;;5087268;29;20035;-74
2023/04/29 00:31:39;;;;;;;34.13;31.52;;;6.10;99.90;;;;;;5087109;29;20070;-75
2023/04/29 00:34:10;;;;;;;46.47;42.30;;;6.00;99.90;;;;;;5087043;29;20181;-75
2023/04/29 00:36:41;;;;;;;45.95;41.45;;;6.10;99.90;;;;;;5086665;29;20064;-75
2023/04/29 00:39:12;;;;;;;37.38;34.50;;;6.00;99.90;;;;;;5086843;29;20028;-75
2023/04/29 00:41:43;;;;;;;80.70;59.03;;;6.00;99.90;;;;;;5086844;29;20508;-75
2023/04/29 00:44:14;;;;;;;41.38;37.63;;;5.90;99.90;;;;;;5086976;29;20048;-75
2023/04/29 00:46:45;;;;;;;38.00;35.20;;;6.10;99.90;;;;;;5086764;29;20036;-75
2023/04/29 00:49:15;;;;;;;34.58;31.85;;;5.80;99.90;;;;;;5087015;29;20036;-75
2023/04/29 00:51:50;;;;;;;38.92;35.70;;;5.70;99.90;;;;;;5086860;29;20047;-75
2023/04/29 00:54:23;;;;;;;34.38;32.05;;;5.60;99.90;;;;;;5086508;29;20357;-75
2023/04/29 00:56:55;;;;;;;34.85;32.28;;;5.70;99.90;;;;;;5086811;29;20047;-75
2023/04/29 00:59:31;;;;;;;34.75;31.95;;;6.10;99.90;;;;;;5086376;29;20024;-75
2023/04/29 01:02:03;;;;;;;35.63;33.20;;;5.80;99.90;;;;;;5086525;29;20031;-75
2023/04/29 01:04:34;;;;;;;38.40;35.72;;;5.70;99.90;;;;;;5086651;29;20107;-75
2023/04/29 01:07:17;;;;;;;39.85;36.58;;;5.50;99.90;;;;;;5086332;29;20122;-75
2023/04/29 01:10:14;;;;;;;36.20;33.83;;;5.50;99.90;;;;;;5086552;29;20070;-76
2023/04/29 01:12:58;;;;;;;34.15;31.88;;;5.30;99.90;;;;;;5085820;29;20039;-75
2023/04/29 01:15:52;;;;;;;33.17;30.98;;;5.80;99.90;;;;;;5086146;29;20127;-75
2023/04/29 01:18:29;;;;;;;33.92;31.45;;;5.60;99.90;;;;;;5085807;29;20040;-75
2023/04/29 01:21:00;;;;;;;34.75;32.50;;;5.40;99.90;;;;;;5086271;29;20025;-75
2023/04/29 01:23:31;;;;;;;33.20;31.05;;;5.10;99.90;;;;;;5086227;29;20059;-75
2023/04/29 01:26:02;;;;;;;35.92;33.53;;;5.10;99.90;;;;;;5086079;29;20126;-75
2023/04/29 01:28:48;;;;;;;35.63;33.25;;;5.30;99.90;;;;;;5086014;29;20022;-74
2023/04/29 01:32:03;;;;;;;36.97;34.47;;;5.20;99.90;;;;;;5068976;29;20524;-74
2023/04/29 01:34:44;;;;;;;35.70;33.22;;;5.10;99.90;;;;;;5076042;29;20040;-75
2023/04/29 01:37:42;;;;;;;38.63;35.67;;;5.40;99.90;;;;;;5085761;29;20060;-75
2023/04/29 01:40:21;;;;;;;34.10;32.03;;;5.10;99.90;;;;;;5086107;29;20443;-74
2023/04/29 01:43:01;;;;;;;35.17;32.70;;;5.10;99.90;;;;;;5085995;29;20032;-74
2023/04/29 01:45:35;;;;;;;34.25;31.90;;;5.20;99.90;;;;;;5086059;29;20659;-75
2023/04/29 01:48:07;;;;;;;34.50;32.40;;;5.30;99.90;;;;;;5085879;29;20039;-73
2023/04/29 01:50:38;;;;;;;35.50;33.10;;;5.10;99.90;;;;;;5085937;29;20028;-75
2023/04/29 01:53:09;;;;;;;36.15;33.42;;;4.80;99.90;;;;;;5085926;29;20031;-74
2023/04/29 01:55:40;;;;;;;42.40;38.83;;;4.90;99.90;;;;;;5085937;29;20114;-74
2023/04/29 01:58:11;;;;;;;34.55;32.05;;;4.80;99.90;;;;;;5085541;29;20032;-74
2023/04/29 02:00:42;;;;;;;34.72;32.50;;;5.20;99.90;;;;;;5085756;29;20091;-75
2023/04/29 02:03:12;;;;;;;36.08;33.28;;;5.10;99.90;;;;;;5085894;29;20056;-73
2023/04/29 02:05:43;;;;;;;34.83;32.53;;;4.90;99.90;;;;;;5085551;29;20493;-75
2023/04/29 02:08:14;;;;;;;33.55;30.92;;;4.90;99.90;;;;;;5085754;29;20016;-75
2023/04/29 02:10:52;;;;;;;35.45;33.17;;;5.20;99.90;;;;;;5085691;29;20036;-75
2023/04/29 02:13:23;;;;;;;33.88;31.73;;;4.90;99.90;;;;;;5085661;29;20027;-75
2023/04/29 02:15:54;;;;;;;33.00;30.80;;;4.80;99.90;;;;;;5085418;29;20036;-75
2023/04/29 02:18:25;;;;;;;33.67;31.58;;;5.00;99.90;;;;;;5085392;29;20047;-73
2023/04/29 02:21:00;;;;;;;34.05;31.80;;;4.80;99.90;;;;;;5085559;29;20040;-75
2023/04/29 02:23:31;;;;;;;33.85;31.50;;;4.90;99.90;;;;;;5085909;29;20020;-74
2023/04/29 02:26:06;;;;;;;110.75;101.25;;;4.60;99.90;;;;;;5089463;29;20491;-75
2023/04/29 02:28:37;;;;;;;35.70;33.00;;;4.70;99.90;;;;;;5089307;29;20158;-74
2023/04/29 02:31:07;;;;;;;35.13;32.72;;;4.40;99.90;;;;;;5089488;29;20040;-75
2023/04/29 02:33:38;;;;;;;35.05;32.63;;;4.50;99.90;;;;;;5113110;29;20375;-75
2023/04/29 02:36:13;;;;;;;33.20;31.00;;;4.50;99.90;;;;;;5550417;23;20031;31
2023/04/29 02:38:44;;;;;;;37.95;34.80;;;4.30;99.90;;;;;;5066832;29;20071;-75
2023/04/29 02:41:17;;;;;;;33.85;31.65;;;4.40;99.90;;;;;;5074094;29;20119;-75
2023/04/29 02:43:48;;;;;;;32.13;30.02;;;4.20;99.90;;;;;;5069879;29;20036;-75
2023/04/29 02:46:19;;;;;;;31.55;28.95;;;4.60;99.90;;;;;;5069726;29;20365;-75
2023/04/29 02:48:50;;;;;;;31.67;29.58;;;4.40;99.90;;;;;;5052822;29;20127;-74
2023/04/29 02:51:21;;;;;;;30.92;28.90;;;4.40;99.90;;;;;;5071315;29;20021;-75
2023/04/29 02:53:51;;;;;;;30.15;28.17;;;4.50;99.90;;;;;;5069632;29;20116;-74
2023/04/29 02:56:22;;;;;;;32.38;30.10;;;4.60;99.90;;;;;;5069389;29;20037;-75
2023/04/29 02:58:53;;;;;;;38.88;35.88;;;4.60;99.90;;;;;;5069421;29;20033;-75
2023/04/29 03:01:24;;;;;;;36.85;34.03;;;4.30;99.90;;;;;;5077468;29;20558;-74
2023/04/29 03:03:55;;;;;;;32.05;29.85;;;4.10;99.90;;;;;;5088760;29;20032;-75
2023/04/29 03:06:26;;;;;;;31.38;29.35;;;4.30;99.90;;;;;;5088597;29;20554;-75
2023/04/29 03:08:57;;;;;;;31.90;29.88;;;4.30;99.90;;;;;;5088781;29;20043;-75
2023/04/29 03:11:28;;;;;;;31.55;29.55;;;4.10;99.90;;;;;;5088607;29;20025;-75
2023/04/29 03:14:00;;;;;;;30.73;28.70;;;4.10;99.90;;;;;;5088823;29;20075;-74
2023/04/29 03:16:31;;;;;;;31.98;29.95;;;3.90;99.90;;;;;;5088655;29;20476;-74
2023/04/29 03:19:02;;;;;;;29.95;27.67;;;4.00;99.90;;;;;;5088416;29;20020;-74
2023/04/29 03:21:33;;;;;;;31.08;28.73;;;4.00;99.90;;;;;;5088642;29;20028;-75
2023/04/29 03:24:04;;;;;;;30.90;28.50;;;4.00;99.90;;;;;;5088392;29;20051;-74
2023/04/29 03:26:35;;;;;;;31.45;29.05;;;3.90;99.90;;;;;;5088100;29;20487;-75
2023/04/29 03:29:06;;;;;;;28.35;26.30;;;4.20;99.90;;;;;;5088240;29;20040;-74
2023/04/29 03:31:37;;;;;;;28.58;26.75;;;3.90;99.90;;;;;;5074454;29;20043;-75
2023/04/29 03:34:07;;;;;;;28.15;26.30;;;4.30;99.90;;;;;;5068756;29;20127;-75
2023/04/29 03:36:38;;;;;;;28.85;26.77;;;4.10;99.90;;;;;;5067521;29;20053;-75
2023/04/29 03:39:11;;;;;;;32.58;30.10;;;4.10;99.90;;;;;;5068540;29;20047;-75
2023/04/29 03:41:42;;;;;;;29.98;27.85;;;4.10;99.90;;;;;;5068751;29;20033;-75
2023/04/29 03:44:13;;;;;;;28.67;26.70;;;4.00;99.90;;;;;;5068531;29;20037;-75
2023/04/29 03:46:44;;;;;;;28.85;26.63;;;4.00;99.90;;;;;;5068672;29;20032;-74
2023/04/29 03:49:15;;;;;;;29.00;26.90;;;4.20;99.90;;;;;;5068458;29;20052;-75
2023/04/29 03:51:46;;;;;;;29.65;27.65;;;4.30;99.90;;;;;;5068625;29;20377;-75
2023/04/29 03:54:17;;;;;;;30.77;28.52;;;4.30;99.90;;;;;;5068420;29;20040;-74
2023/04/29 03:56:48;;;;;;;30.05;27.95;;;4.30;99.90;;;;;;5068363;29;20040;-75
2023/04/29 03:59:18;;;;;;;30.83;28.55;;;4.20;99.90;;;;;;5068587;29;20036;-75
2023/04/29 04:01:50;;;;;;;31.20;29.10;;;4.40;99.90;;;;;;5068348;29;20036;-74
2023/04/29 04:04:21;;;;;;;28.90;26.77;;;4.10;99.90;;;;;;5068204;29;20369;-74
2023/04/29 04:06:52;;;;;;;29.33;27.30;;;4.00;99.90;;;;;;5068093;29;20037;-74
2023/04/29 04:09:22;;;;;;;28.40;26.40;;;4.40;99.90;;;;;;5068221;29;20598;-74
2023/04/29 04:11:53;;;;;;;31.85;29.77;;;4.40;99.90;;;;;;5068220;29;20024;-74
2023/04/29 04:14:24;;;;;;;30.27;28.17;;;4.60;99.90;;;;;;5068211;29;20441;-75
2023/04/29 04:16:55;;;;;;;31.65;29.55;;;4.70;99.90;;;;;;5067926;29;20477;-75
2023/04/29 04:19:27;;;;;;;31.85;29.73;;;5.00;99.90;;;;;;5068013;29;20088;-73
2023/04/29 04:21:58;;;;;;;36.67;34.45;;;5.20;99.90;;;;;;5050918;29;20493;-74
2023/04/29 04:24:29;;;;;;;36.08;33.85;;;5.50;99.90;;;;;;5066696;29;20056;-75
2023/04/29 04:27:00;;;;;;;37.35;34.92;;;5.80;99.90;;;;;;5067688;29;20029;-75
2023/04/29 04:29:31;;;;;;;36.75;34.30;;;5.90;99.90;;;;;;5067665;29;20029;-75
2023/04/29 04:32:02;;;;;;;39.97;37.53;;;5.90;99.90;;;;;;5067735;29;20032;-75
2023/04/29 04:34:33;;;;;;;41.85;39.35;;;5.90;99.90;;;;;;5067473;29;20033;-75
2023/04/29 04:37:05;;;;;;;39.50;36.97;;;5.80;99.90;;;;;;5067040;29;20136;-75
2023/04/29 04:39:37;;;;;;;38.45;36.08;;;6.20;99.90;;;;;;5067370;29;20028;-75
2023/04/29 04:42:08;;;;;;;38.30;35.85;;;6.00;99.90;;;;;;5067257;29;20032;-75
2023/04/29 04:44:39;;;;;;;39.42;36.70;;;6.40;99.90;;;;;;5047976;29;20021;-75
2023/04/29 04:47:10;;;;;;;37.13;34.83;;;6.50;99.90;;;;;;5047983;29;20037;-75
2023/04/29 04:49:41;;;;;;;36.97;34.78;;;6.80;99.90;;;;;;5047940;29;20021;-73
2023/04/29 04:52:12;;;;;;;38.55;36.15;;;7.10;99.90;;;;;;5047948;29;20555;-75
2023/04/29 04:54:45;;;;;;;36.22;33.88;;;7.30;99.90;;;;;;5047720;29;20037;-74
2023/04/29 04:57:16;;;;;;;36.20;34.10;;;7.30;99.90;;;;;;5047887;29;20122;-73
2023/04/29 04:59:47;;;;;;;35.83;33.53;;;7.50;99.90;;;;;;5054665;29;20470;-75
2023/04/29 05:02:18;;;;;;;34.85;32.72;;;7.60;99.90;;;;;;5086529;29;20043;-75
2023/04/29 05:04:48;;;;;;;32.65;30.70;;;7.60;99.90;;;;;;5086641;29;20032;-74
2023/04/29 05:07:19;;;;;;;31.40;29.40;;;7.60;99.90;;;;;;5086272;29;20036;-73
2023/04/29 05:09:50;;;;;;;34.40;32.20;;;7.60;99.90;;;;;;5086846;29;20384;-73
2023/04/29 05:12:22;;;;;;;36.22;33.83;;;7.50;99.90;;;;;;5086709;29;20028;-75
2023/04/29 05:14:53;;;;;;;39.35;36.45;;;7.60;99.90;;;;;;5086310;29;20040;-74
2023/04/29 05:17:24;;;;;;;37.30;35.08;;;7.50;99.90;;;;;;5086345;29;20384;-74
2023/04/29 05:19:54;;;;;;;44.17;40.47;;;7.70;99.90;;;;;;5086257;29;20116;-75
2023/04/29 05:22:25;;;;;;;38.80;36.25;;;7.80;99.90;;;;;;5086293;29;20028;-75
2023/04/29 05:25:02;;;;;;;37.45;35.13;;;7.90;99.90;;;;;;5086201;29;20475;-74
2023/04/29 05:27:33;;;;;;;36.00;33.60;;;7.90;99.90;;;;;;5086190;29;20028;-75
2023/04/29 05:30:05;;;;;;;35.08;32.92;;;8.00;99.90;;;;;;5086248;29;20030;-75
2023/04/29 05:32:36;;;;;;;35.50;33.20;;;8.10;99.90;;;;;;5086053;29;20027;-75
2023/04/29 05:35:07;;;;;;;35.05;32.85;;;8.20;99.90;;;;;;5085901;29;20084;-74
2023/04/29 05:37:38;;;;;;;36.17;33.65;;;8.20;99.90;;;;;;5085648;29;20158;-75
2023/04/29 05:40:09;;;;;;;34.55;32.33;;;8.30;99.90;;;;;;5085945;29;20103;-74
2023/04/29 05:42:40;;;;;;;34.03;31.88;;;8.50;99.90;;;;;;5085876;29;20091;-75
2023/04/29 05:45:11;;;;;;;33.65;31.17;;;8.70;99.90;;;;;;5085978;29;20468;-75
2023/04/29 05:47:42;;;;;;;33.00;30.90;;;8.80;99.90;;;;;;5085856;29;20469;-75
2023/04/29 05:50:13;;;;;;;30.23;28.05;;;9.00;99.90;;;;;;5085863;29;20038;-75
2023/04/29 05:52:44;;;;;;;28.63;26.75;;;9.60;99.90;;;;;;5085789;29;20020;-75
2023/04/29 05:55:14;;;;;;;27.45;25.48;;;10.00;99.90;;;;;;5085659;29;20028;-75
2023/04/29 05:57:45;;;;;;;25.67;23.88;;;10.60;99.90;;;;;;5085569;29;20043;-75
2023/04/29 06:00:16;;;;;;;24.45;22.77;;;11.30;99.90;;;;;;5085409;29;20020;-75
2023/04/29 06:02:47;;;;;;;26.65;24.95;;;12.10;99.90;;;;;;5085321;29;20040;-75
2023/04/29 06:05:18;;;;;;;32.35;30.00;;;12.20;99.90;;;;;;5085551;29;20020;-75
2023/04/29 06:07:49;;;;;;;34.72;32.40;;;12.40;99.90;;;;;;5085490;29;20063;-75
2023/04/29 06:10:20;;;;;;;36.47;34.08;;;12.60;99.90;;;;;;5085389;29;20024;-74
2023/04/29 06:12:51;;;;;;;37.38;35.05;;;12.60;99.90;;;;;;5084164;29;20127;-75
2023/04/29 06:15:22;;;;;;;41.63;39.13;;;12.60;99.90;;;;;;5085576;29;20032;-73
2023/04/29 06:17:53;;;;;;;36.47;34.28;;;12.60;99.90;;;;;;5085427;29;20047;-74
2023/04/29 06:20:24;;;;;;;35.97;33.65;;;12.60;99.90;;;;;;5085408;29;20032;-73
2023/04/29 06:22:55;;;;;;;35.42;33.10;;;12.70;99.90;;;;;;5068240;29;20040;-73
2023/04/29 06:25:26;;;;;;;37.35;35.08;;;12.90;99.90;;;;;;5060984;29;20029;-75
2023/04/29 06:27:57;;;;;;;33.20;31.23;;;13.30;99.90;;;;;;5066011;29;20047;-73
2023/04/29 06:30:28;;;;;;;35.15;32.95;;;13.00;99.90;;;;;;5065858;29;20397;-75
2023/04/29 06:32:58;;;;;;;36.00;33.50;;;13.40;99.90;;;;;;5066048;29;20032;-74
2023/04/29 06:35:29;;;;;;;38.60;36.17;;;13.50;99.90;;;;;;5065637;29;20037;-76
2023/04/29 06:38:00;;;;;;;40.58;37.65;;;13.50;99.90;;;;;;5065344;29;20053;-75
2023/04/29 06:40:31;;;;;;;38.20;35.72;;;13.80;99.90;;;;;;5065821;29;20028;-74
2023/04/29 06:43:03;;;;;;;38.67;36.20;;;13.60;99.90;;;;;;5065828;29;20025;-75
2023/04/29 06:45:34;;;;;;;39.50;37.03;;;13.40;99.90;;;;;;5065845;29;20031;-74
2023/04/29 06:48:05;;;;;;;38.17;35.85;;;13.50;99.90;;;;;;5065810;29;20473;-73
2023/04/29 06:50:36;;;;;;;34.00;31.70;;;13.50;99.90;;;;;;5065751;29;20092;-73
2023/04/29 06:53:06;;;;;;;33.97;31.85;;;13.60;99.90;;;;;;5065537;29;20044;-74
2023/04/29 06:55:37;;;;;;;30.58;28.67;;;13.90;99.90;;;;;;5065324;29;20041;-74
2023/04/29 06:58:08;;;;;;;33.80;31.60;;;14.00;99.90;;;;;;5065497;29;20037;-74
2023/04/29 07:00:39;;;;;;;32.13;29.60;;;13.90;99.90;;;;;;5065734;29;20029;-75
2023/04/29 07:03:11;;;;;;;30.85;28.88;;;14.00;99.90;;;;;;5065610;29;20077;-73
2023/04/29 07:05:44;;;;;;;32.65;30.50;;;13.90;99.90;;;;;;5064554;29;20040;-75
2023/04/29 07:08:15;;;;;;;29.10;27.23;;;14.00;99.90;;;;;;5065418;29;20024;-73
2023/04/29 07:10:56;;;;;;;29.85;27.95;;;14.00;99.90;;;;;;5071813;29;20054;-73
2023/04/29 07:13:27;;;;;;;30.75;28.63;;;14.00;99.90;;;;;;5080746;29;20031;-73
2023/04/29 07:15:59;;;;;;;28.20;26.48;;;14.10;99.90;;;;;;5088154;29;20083;-74
2023/04/29 07:18:29;;;;;;;30.02;28.15;;;14.30;99.90;;;;;;5088245;29;20024;-76
2023/04/29 07:21:01;;;;;;;27.50;25.85;;;14.30;99.90;;;;;;5088174;29;20028;-75
2023/04/29 07:23:32;;;;;;;27.75;26.00;;;14.20;99.90;;;;;;5088354;29;20032;-73
2023/04/29 07:26:14;;;;;;;27.60;25.80;;;14.30;99.90;;;;;;5088351;29;20075;-74
2023/04/29 07:28:47;;;;;;;27.52;25.70;;;14.20;99.90;;;;;;5087941;29;20031;-74
2023/04/29 07:31:18;;;;;;;27.13;25.20;;;14.20;99.90;;;;;;5088271;29;20031;-73
2023/04/29 07:33:48;;;;;;;26.77;25.15;;;14.00;99.90;;;;;;5088315;29;20028;-75
2023/04/29 07:36:20;;;;;;;27.92;25.92;;;14.30;99.90;;;;;;5087665;29;20044;-73
2023/04/29 07:38:51;;;;;;;27.33;25.50;;;14.50;99.90;;;;;;5088172;29;20118;-74
2023/04/29 07:41:22;;;;;;;26.95;25.33;;;14.50;99.90;;;;;;5088533;29;20132;-74
2023/04/29 07:43:53;;;;;;;29.75;27.88;;;14.50;99.90;;;;;;5088602;29;20040;-73
2023/04/29 07:46:23;;;;;;;26.90;25.10;;;14.80;99.90;;;;;;5088189;29;20040;-73
2023/04/29 07:48:54;;;;;;;28.10;25.83;;;14.70;99.90;;;;;;5073650;29;20369;-74
2023/04/29 07:51:27;;;;;;;26.35;24.65;;;14.90;99.90;;;;;;5068439;29;20035;-74
2023/04/29 07:53:58;;;;;;;25.88;24.27;;;14.80;99.90;;;;;;5068267;29;20025;-75
2023/04/29 07:56:30;;;;;;;24.75;22.90;;;15.00;99.90;;;;;;5068247;29;20045;-75
2023/04/29 07:59:01;;;;;;;26.85;25.10;;;15.00;99.90;;;;;;5072053;29;20016;-73
2023/04/29 08:01:32;;;;;;;26.40;24.60;;;14.90;99.90;;;;;;5087185;29;20042;-75
2023/04/29 08:04:03;;;;;;;26.85;24.85;;;15.20;99.90;;;;;;5074007;29;20071;-75
2023/04/29 08:06:34;;;;;;;25.35;23.70;;;15.40;99.90;;;;;;5067930;29;20473;-73
2023/04/29 08:09:05;;;;;;;25.20;23.58;;;15.40;99.90;;;;;;5067914;29;20122;-74
2023/04/29 08:11:36;;;;;;;26.08;24.40;;;15.40;99.90;;;;;;5068085;29;20017;-74
2023/04/29 08:14:07;;;;;;;26.98;25.17;;;15.50;99.90;;;;;;5067728;29;20485;-73
2023/04/29 08:16:38;;;;;;;23.98;22.27;;;15.60;99.90;;;;;;5065144;29;20503;-73
2023/04/29 08:19:09;;;;;;;24.35;22.70;;;15.30;99.90;;;;;;5067772;29;20032;-73
2023/04/29 08:21:40;;;;;;;25.80;23.98;;;15.40;99.90;;;;;;5079046;29;20024;-73
2023/04/29 08:24:11;;;;;;;23.83;22.15;;;15.40;99.90;;;;;;5087162;29;20040;-75
2023/04/29 08:26:42;;;;;;;26.50;24.70;;;15.70;99.90;;;;;;5087138;29;20028;-77
2023/04/29 08:29:12;;;;;;;28.52;26.50;;;15.50;99.90;;;;;;5087185;29;20127;-76
2023/04/29 08:31:43;;;;;;;25.83;24.13;;;15.40;99.90;;;;;;5086964;29;20484;-76
2023/04/29 08:34:14;;;;;;;22.42;20.92;;;15.70;99.90;;;;;;5087086;29;20035;-76
2023/04/29 08:36:45;;;;;;;25.10;23.30;;;15.50;99.90;;;;;;5086538;29;20071;-73
2023/04/29 08:39:16;;;;;;;26.60;24.88;;;15.60;99.90;;;;;;5086975;29;20380;-77
2023/04/29 08:41:50;;;;;;;26.65;24.70;;;15.90;99.90;;;;;;5087209;29;20248;-76
2023/04/29 08:44:21;;;;;;;25.63;23.58;;;15.70;99.90;;;;;;5087041;29;20556;-75
2023/04/29 08:46:53;;;;;;;25.15;23.40;;;15.70;99.90;;;;;;5086912;29;20028;-76
2023/04/29 08:49:24;;;;;;;26.17;24.23;;;15.70;99.90;;;;;;5086809;29;20038;-75
2023/04/29 08:51:55;;;;;;;25.30;23.70;;;15.90;99.90;;;;;;5087151;29;20103;-73
2023/04/29 08:54:27;;;;;;;25.05;23.38;;;16.00;99.90;;;;;;5087043;29;20028;-76
2023/04/29 08:56:58;;;;;;;25.10;23.35;;;16.10;99.90;;;;;;5086871;29;20380;-74
2023/04/29 08:59:30;;;;;;;27.27;25.58;;;15.90;99.90;;;;;;5086740;29;20052;-76
2023/04/29 09:02:02;;;;;;;24.38;22.67;;;15.90;99.90;;;;;;5086746;29;20059;-76
2023/04/29 09:04:35;;;;;;;25.00;23.17;;;16.00;99.90;;;;;;5086746;29;20032;-73
2023/04/29 09:07:07;;;;;;;23.75;22.25;;;16.10;99.90;;;;;;5069373;29;20480;-77
2023/04/29 09:09:41;;;;;;;23.63;22.02;;;16.10;99.90;;;;;;5086311;29;20067;-76
2023/04/29 09:12:12;;;;;;;23.85;22.25;;;16.10;99.90;;;;;;5086569;29;20046;-73
2023/04/29 09:14:43;;;;;;;22.85;21.40;;;16.40;99.90;;;;;;5086346;29;20515;-76
2023/04/29 09:17:15;;;;;;;26.42;24.70;;;16.30;99.90;;;;;;5086258;29;20028;-74
2023/04/29 09:19:46;;;;;;;24.25;22.60;;;16.40;99.90;;;;;;5086213;29;20028;-74
2023/04/29 09:22:17;;;;;;;24.92;23.13;;;16.30;99.90;;;;;;5086265;29;20034;-77
2023/04/29 09:24:47;;;;;;;25.83;23.92;;;16.60;99.90;;;;;;5086455;29;20031;-77
2023/04/29 09:27:28;;;;;;;25.98;24.25;;;16.60;99.90;;;;;;5086143;29;20028;-77
2023/04/29 09:30:02;;;;;;;28.15;26.33;;;16.40;99.90;;;;;;5085989;29;20024;-75
2023/04/29 09:32:33;;;;;;;27.30;25.63;;;16.70;99.90;;;;;;5086342;29;20388;-75
2023/04/29 09:35:25;;;;;;;26.40;24.70;;;16.60;99.90;;;;;;5068343;29;20044;-75
2023/04/29 09:38:11;;;;;;;30.05;27.67;;;16.60;99.90;;;;;;5085772;29;20091;-73
2023/04/29 09:40:43;;;;;;;28.70;26.70;;;16.50;97.80;;;;;;5085897;29;20107;-75
2023/04/29 09:43:17;;;;;;;29.17;27.30;;;16.60;99.10;;;;;;5086002;29;20083;-76
2023/04/29 09:45:48;;;;;;;31.08;29.10;;;16.80;96.40;;;;;;5085903;29;20131;-77
2023/04/29 09:48:19;;;;;;;30.83;28.92;;;16.70;98.30;;;;;;5084131;29;20036;-77
2023/04/29 09:51:01;;;;;;;32.70;30.70;;;16.60;97.20;;;;;;5085997;29;20025;-76
2023/04/29 09:53:36;;;;;;;33.65;31.75;;;17.00;98.80;;;;;;5078851;29;20377;-75
2023/04/29 09:56:08;;;;;;;33.40;31.23;;;16.80;93.50;;;;;;5049291;29;20149;-74
2023/04/29 09:58:39;;;;;;;32.65;30.45;;;16.80;92.70;;;;;;5065657;29;20028;-75
2023/04/29 10:01:12;;;;;;;31.17;29.17;;;17.00;97.40;;;;;;5066033;29;20032;-74
2023/04/29 10:03:44;;;;;;;34.47;32.08;;;16.80;96.40;;;;;;5066491;29;20480;-77
2023/04/29 10:06:16;;;;;;;33.22;30.88;;;16.80;93.90;;;;;;5066162;29;20041;-77
2023/04/29 10:08:48;;;;;;;33.85;31.65;;;16.80;95.90;;;;;;5066336;29;20064;-76
2023/04/29 10:11:20;;;;;;;34.15;31.85;;;16.80;94.40;;;;;;5066809;29;20032;-75
2023/04/29 10:13:51;;;;;;;33.13;31.20;;;16.90;93.60;;;;;;5066012;29;20500;-78
2023/04/29 10:16:33;;;;;;;32.88;30.90;;;17.10;95.30;;;;;;5077944;29;20036;-74
2023/04/29 10:19:09;;;;;;;33.97;31.63;;;17.10;95.90;;;;;;5085792;29;20543;-76
2023/04/29 10:21:40;;;;;;;33.90;31.80;;;17.20;94.20;;;;;;5085809;29;20024;-75
2023/04/29 10:24:13;;;;;;;34.33;32.05;;;17.00;91.30;;;;;;5085930;29;20095;-75
2023/04/29 10:26:46;;;;;;;34.55;32.33;;;17.00;86.40;;;;;;5085858;29;20032;-74
2023/04/29 10:29:18;;;;;;;31.88;29.92;;;16.90;89.50;;;;;;5085631;29;20036;-74
2023/04/29 10:31:50;;;;;;;33.55;31.55;;;17.00;91.70;;;;;;5085178;29;20395;-78
2023/04/29 10:34:22;;;;;;;32.92;30.98;;;16.90;91.50;;;;;;5085327;29;20032;-76
2023/04/29 10:36:53;;;;;;;34.17;31.98;;;17.20;93.90;;;;;;5084942;29;20583;-77
2023/04/29 10:39:35;;;;;;;31.88;29.50;;;17.40;95.30;;;;;;5085355;29;20077;-77
2023/04/29 10:42:27;;;;;;;31.13;29.20;;;17.20;92.70;;;;;;5085485;29;20032;-75
2023/04/29 10:45:17;;;;;;;32.17;30.17;;;16.90;92.00;;;;;;5060651;29;20477;-73
2023/04/29 10:48:12;;;;;;;35.83;33.67;;;17.30;93.70;;;;;;5069477;29;20035;-76
2023/04/29 10:50:48;;;;;;;30.27;28.27;;;17.40;91.50;;;;;;5062779;29;20064;-78
2023/04/29 10:53:20;;;;;;;26.98;25.20;;;17.30;91.20;;;;;;5070500;29;20021;-76
2023/04/29 10:55:58;;;;;;;28.48;26.58;;;17.20;92.90;;;;;;5070662;29;20068;-76
2023/04/29 10:58:37;;;;;;;31.15;29.00;;;17.10;90.60;;;;;;5070231;29;20024;-78
2023/04/29 11:01:13;;;;;;;30.38;28.42;;;17.40;92.40;;;;;;5070385;29;20032;-79
2023/04/29 11:03:58;;;;;;;30.25;28.38;;;17.20;91.80;;;;;;5070380;29;20032;-76
2023/04/29 11:06:35;;;;;;;26.98;25.27;;;17.30;93.60;;;;;;5070071;29;20041;-79
2023/04/29 11:09:20;;;;;;;32.53;30.50;;;17.20;87.20;;;;;;5070547;29;20096;-76
2023/04/29 11:12:05;;;;;;;30.90;28.77;;;17.20;91.20;;;;;;5070453;29;20353;-76
2023/04/29 11:14:40;;;;;;;31.98;29.95;;;17.20;88.80;;;;;;5070408;29;20430;-78
2023/04/29 11:17:16;;;;;;;33.00;30.98;;;17.30;91.40;;;;;;5069846;29;20080;-77
2023/04/29 11:19:50;;;;;;;25.85;24.10;;;17.10;88.90;;;;;;5070030;29;20024;-77
2023/04/29 11:22:32;;;;;;;31.50;29.27;;;16.90;87.10;;;;;;5070196;29;20029;-76
2023/04/29 11:25:06;;;;;;;28.30;26.55;;;16.90;86.80;;;;;;5069925;29;20024;-77
2023/04/29 11:27:39;;;;;;;27.15;25.25;;;16.80;89.30;;;;;;5052977;29;20131;-77
2023/04/29 11:30:11;;;;;;;28.42;26.73;;;17.00;88.70;;;;;;5069886;29;20020;-77
2023/04/29 11:32:42;;;;;;;30.88;29.02;;;17.20;87.30;;;;;;5069912;29;20447;-78
2023/04/29 11:35:15;;;;;;;29.50;27.48;;;17.40;89.00;;;;;;5069696;29;20107;-78
2023/04/29 11:37:46;;;;;;;29.20;27.33;;;17.40;90.50;;;;;;5551404;23;20056;-76
2023/04/29 11:40:17;;;;;;;28.40;26.52;;;17.60;87.90;;;;;;5108768;29;20055;-78
2023/04/29 11:42:48;;;;;;;28.85;26.95;;;17.40;86.60;;;;;;5123356;29;20086;-77
2023/04/29 11:45:19;;;;;;;26.92;25.23;;;17.50;86.10;;;;;;5123475;29;20032;-78
2023/04/29 11:47:50;;;;;;;26.90;25.17;;;17.30;83.40;;;;;;5108464;29;20518;-76
2023/04/29 11:50:22;;;;;;;28.38;26.67;;;17.40;87.50;;;;;;5107344;29;20036;-78
2023/04/29 11:52:53;;;;;;;24.45;23.05;;;17.30;86.50;;;;;;5108854;29;20152;-77
2023/04/29 11:55:24;;;;;;;27.58;25.85;;;17.40;86.00;;;;;;5107188;29;20467;-78
2023/04/29 11:57:55;;;;;;;26.90;25.08;;;17.50;87.90;;;;;;5107828;29;20032;-78
2023/04/29 12:00:26;;;;;;;28.55;26.65;;;17.70;90.50;;;;;;5109138;29;20077;-78
2023/04/29 12:02:57;;;;;;;22.48;20.83;;;17.60;87.40;;;;;;5108653;29;20059;-76
2023/04/29 12:05:28;;;;;;;17.38;16.38;;;17.60;87.80;;;;;;5108540;29;20060;-78
2023/04/29 12:07:59;;;;;;;18.30;17.02;;;17.80;85.70;;;;;;5108257;29;20027;-78
2023/04/29 12:10:31;;;;;;;17.92;16.83;;;17.80;87.30;;;;;;5106981;29;20027;-78
2023/04/29 12:13:03;;;;;;;18.45;17.15;;;17.50;80.90;;;;;;5107017;29;20515;-77
2023/04/29 12:15:34;;;;;;;19.95;18.45;;;18.20;87.80;;;;;;5107939;29;20435;-76
2023/04/29 12:18:05;;;;;;;19.27;17.90;;;18.40;85.90;;;;;;5108190;29;20023;-76
2023/04/29 12:20:38;;;;;;;19.25;17.95;;;18.10;86.70;;;;;;5122964;29;20037;-76
2023/04/29 12:23:21;;;;;;;19.95;18.75;;;18.10;85.20;;;;;;5107824;29;20019;-77
2023/04/29 12:25:57;;;;;;;21.55;19.95;;;17.90;82.60;;;;;;5108259;29;20024;-77
2023/04/29 12:28:29;;;;;;;21.33;19.80;;;17.80;86.00;;;;;;5106486;29;20032;-77
2023/04/29 12:31:02;;;;;;;21.55;19.88;;;17.40;79.50;;;;;;5108018;29;20119;-78
2023/04/29 12:33:33;;;;;;;20.45;19.15;;;17.90;86.90;;;;;;5107748;29;20039;-77
2023/04/29 12:36:19;;;;;;;23.48;21.88;;;17.60;83.90;;;;;;5107353;29;20042;-75
2023/04/29 12:38:51;;;;;;;20.85;19.23;;;17.80;85.00;;;;;;5106125;29;20400;-77
2023/04/29 12:41:39;;;;;;;22.65;21.05;;;17.60;84.80;;;;;;5107781;29;20020;-77
2023/04/29 12:44:10;;;;;;;28.40;25.98;;;17.50;84.10;;;;;;5107836;29;20087;-76
2023/04/29 12:46:41;;;;;;;25.85;24.25;;;17.70;82.70;;;;;;5106288;29;20361;-76
2023/04/29 12:49:13;;;;;;;25.25;23.35;;;17.80;82.70;;;;;;5106250;29;20476;-78
2023/04/29 12:51:44;;;;;;;24.38;22.80;;;17.80;85.30;;;;;;5106471;29;20034;-77
2023/04/29 12:54:15;;;;;;;23.23;21.40;;;17.80;85.50;;;;;;5107841;29;20408;-77
2023/04/29 12:56:46;;;;;;;22.02;20.55;;;17.70;83.80;;;;;;5105881;29;20046;-78
2023/04/29 12:59:17;;;;;;;24.58;22.92;;;17.80;84.20;;;;;;5122134;29;20028;-77